sensor_id;sensor_type;location;lat;lon;timestamp;P1;durP1;ratioP1;P2;durP2;ratioP2
3307;SDS011;1666;48.898;9.182;2023-05-07T00:00:05;5.45;;;3.78;;
3307;SDS011;1666;48.898;9.182;2023-05-07T00:02:36;4.90;;;3.88;;
3307;SDS011;1666;48.898;9.182;2023-05-07T00:05:10;5.15;;;4.07;;
3307;SDS011;1666;48.898;9.182;2023-05-07T00:07:40;7.13;;;4.03;;
3307;SDS011;1666;48.898;9.182;2023-05-07T00:10:10;4.50;;;3.38;;
3307;SDS011;1666;48.898;9.182;2023-05-07T00:12:41;4.82;;;3.58;;
3307;SDS011;1666;48.898;9.182;2023-05-07T00:15:11;5.35;;;3.83;;
3307;SDS011;1666;48.898;9.182;2023-05-07T00:17:41;5.07;;;3.80;;
3307;SDS011;1666;48.898;9.182;2023-05-07T00:20:13;6.88;;;4.10;;
3307;SDS011;1666;48.898;9.182;2023-05-07T00:22:43;4.20;;;3.35;;
3307;SDS011;1666;48.898;9.182;2023-05-07T00:25:13;4.97;;;4.07;;
3307;SDS011;1666;48.898;9.182;2023-05-07T00:27:43;5.28;;;3.50;;
3307;SDS011;1666;48.898;9.182;2023-05-07T00:30:13;5.32;;;3.80;;
3307;SDS011;1666;48.898;9.182;2023-05-07T00:32:43;4.47;;;3.75;;
3307;SDS011;1666;48.898;9.182;2023-05-07T00:35:18;4.65;;;3.88;;
3307;SDS011;1666;48.898;9.182;2023-05-07T00:37:48;6.13;;;4.20;;
3307;SDS011;1666;48.898;9.182;2023-05-07T00:40:18;5.32;;;4.20;;
3307;SDS011;1666;48.898;9.182;2023-05-07T00:42:48;6.72;;;4.10;;
3307;SDS011;1666;48.898;9.182;2023-05-07T00:45:23;5.07;;;4.00;;
3307;SDS011;1666;48.898;9.182;2023-05-07T00:47:57;8.80;;;4.38;;
3307;SDS011;1666;48.898;9.182;2023-05-07T00:50:31;4.28;;;3.88;;
3307;SDS011;1666;48.898;9.182;2023-05-07T00:53:02;6.10;;;3.97;;
3307;SDS011;1666;48.898;9.182;2023-05-07T00:55:33;4.43;;;3.92;;
3307;SDS011;1666;48.898;9.182;2023-05-07T00:58:04;4.28;;;3.67;;
3307;SDS011;1666;48.898;9.182;2023-05-07T01:00:35;6.50;;;3.60;;
3307;SDS011;1666;48.898;9.182;2023-05-07T01:03:05;6.63;;;3.65;;
3307;SDS011;1666;48.898;9.182;2023-05-07T01:05:38;4.75;;;4.03;;
3307;SDS011;1666;48.898;9.182;2023-05-07T01:08:09;5.60;;;3.90;;
3307;SDS011;1666;48.898;9.182;2023-05-07T01:10:39;5.15;;;3.53;;
3307;SDS011;1666;48.898;9.182;2023-05-07T01:13:09;4.07;;;3.20;;
3307;SDS011;1666;48.898;9.182;2023-05-07T01:15:40;7.72;;;3.60;;
3307;SDS011;1666;48.898;9.182;2023-05-07T01:18:10;4.50;;;3.30;;
3307;SDS011;1666;48.898;9.182;2023-05-07T01:20:43;5.53;;;3.03;;
3307;SDS011;1666;48.898;9.182;2023-05-07T01:23:15;3.65;;;2.92;;
3307;SDS011;1666;48.898;9.182;2023-05-07T01:25:50;3.90;;;3.38;;
3307;SDS011;1666;48.898;9.182;2023-05-07T01:28:21;3.65;;;2.97;;
3307;SDS011;1666;48.898;9.182;2023-05-07T01:30:54;3.05;;;2.75;;
3307;SDS011;1666;48.898;9.182;2023-05-07T01:33:33;5.82;;;3.20;;
3307;SDS011;1666;48.898;9.182;2023-05-07T01:36:05;4.57;;;3.15;;
3307;SDS011;1666;48.898;9.182;2023-05-07T01:38:39;6.22;;;3.15;;
3307;SDS011;1666;48.898;9.182;2023-05-07T01:41:11;5.07;;;3.53;;
3307;SDS011;1666;48.898;9.182;2023-05-07T01:43:41;3.67;;;3.38;;
3307;SDS011;1666;48.898;9.182;2023-05-07T01:46:12;3.95;;;3.08;;
3307;SDS011;1666;48.898;9.182;2023-05-07T01:48:43;3.58;;;3.03;;
3307;SDS011;1666;48.898;9.182;2023-05-07T01:51:14;5.07;;;3.35;;
3307;SDS011;1666;48.898;9.182;2023-05-07T01:53:46;6.78;;;3.17;;
3307;SDS011;1666;48.898;9.182;2023-05-07T01:56:17;5.15;;;3.13;;
3307;SDS011;1666;48.898;9.182;2023-05-07T01:58:47;3.72;;;2.92;;
3307;SDS011;1666;48.898;9.182;2023-05-07T02:01:18;3.85;;;3.08;;
3307;SDS011;1666;48.898;9.182;2023-05-07T02:03:48;6.50;;;3.67;;
3307;SDS011;1666;48.898;9.182;2023-05-07T02:06:18;3.78;;;3.13;;
3307;SDS011;1666;48.898;9.182;2023-05-07T02:08:51;4.78;;;3.28;;
3307;SDS011;1666;48.898;9.182;2023-05-07T02:11:21;5.72;;;3.53;;
3307;SDS011;1666;48.898;9.182;2023-05-07T02:13:51;5.63;;;3.30;;
3307;SDS011;1666;48.898;9.182;2023-05-07T02:16:21;3.90;;;3.10;;
3307;SDS011;1666;48.898;9.182;2023-05-07T02:18:51;5.00;;;2.95;;
3307;SDS011;1666;48.898;9.182;2023-05-07T02:21:21;4.00;;;3.35;;
3307;SDS011;1666;48.898;9.182;2023-05-07T02:23:54;4.95;;;3.40;;
3307;SDS011;1666;48.898;9.182;2023-05-07T02:26:24;3.70;;;2.63;;
3307;SDS011;1666;48.898;9.182;2023-05-07T02:28:54;3.35;;;2.97;;
3307;SDS011;1666;48.898;9.182;2023-05-07T02:31:24;5.85;;;3.05;;
3307;SDS011;1666;48.898;9.182;2023-05-07T02:33:54;4.22;;;3.13;;
3307;SDS011;1666;48.898;9.182;2023-05-07T02:36:24;4.65;;;3.22;;
3307;SDS011;1666;48.898;9.182;2023-05-07T02:38:56;7.28;;;3.15;;
3307;SDS011;1666;48.898;9.182;2023-05-07T02:41:26;5.22;;;3.35;;
3307;SDS011;1666;48.898;9.182;2023-05-07T02:43:56;3.80;;;3.38;;
3307;SDS011;1666;48.898;9.182;2023-05-07T02:46:26;6.65;;;2.90;;
3307;SDS011;1666;48.898;9.182;2023-05-07T02:48:56;3.97;;;3.10;;
3307;SDS011;1666;48.898;9.182;2023-05-07T02:51:26;6.10;;;3.35;;
3307;SDS011;1666;48.898;9.182;2023-05-07T02:53:59;4.10;;;2.92;;
3307;SDS011;1666;48.898;9.182;2023-05-07T02:56:30;3.70;;;3.13;;
3307;SDS011;1666;48.898;9.182;2023-05-07T02:58:59;4.15;;;3.30;;
3307;SDS011;1666;48.898;9.182;2023-05-07T03:01:29;4.00;;;3.35;;
3307;SDS011;1666;48.898;9.182;2023-05-07T03:03:59;5.22;;;3.72;;
3307;SDS011;1666;48.898;9.182;2023-05-07T03:06:30;5.32;;;3.30;;
3307;SDS011;1666;48.898;9.182;2023-05-07T03:09:02;5.57;;;3.75;;
3307;SDS011;1666;48.898;9.182;2023-05-07T03:11:33;5.88;;;3.20;;
3307;SDS011;1666;48.898;9.182;2023-05-07T03:14:03;3.83;;;3.35;;
3307;SDS011;1666;48.898;9.182;2023-05-07T03:16:33;6.38;;;3.03;;
3307;SDS011;1666;48.898;9.182;2023-05-07T03:19:02;7.07;;;3.50;;
3307;SDS011;1666;48.898;9.182;2023-05-07T03:21:32;3.78;;;3.10;;
3307;SDS011;1666;48.898;9.182;2023-05-07T03:24:05;4.03;;;3.30;;
3307;SDS011;1666;48.898;9.182;2023-05-07T03:26:36;5.57;;;3.80;;
3307;SDS011;1666;48.898;9.182;2023-05-07T03:29:05;3.90;;;3.50;;
3307;SDS011;1666;48.898;9.182;2023-05-07T03:31:35;4.85;;;3.70;;
3307;SDS011;1666;48.898;9.182;2023-05-07T03:34:05;6.00;;;3.78;;
3307;SDS011;1666;48.898;9.182;2023-05-07T03:36:35;6.82;;;4.03;;
3307;SDS011;1666;48.898;9.182;2023-05-07T03:39:08;7.57;;;4.05;;
3307;SDS011;1666;48.898;9.182;2023-05-07T03:41:38;4.78;;;3.78;;
3307;SDS011;1666;48.898;9.182;2023-05-07T03:44:07;6.18;;;4.00;;
3307;SDS011;1666;48.898;9.182;2023-05-07T03:46:37;5.78;;;3.55;;
3307;SDS011;1666;48.898;9.182;2023-05-07T03:49:07;5.85;;;3.67;;
3307;SDS011;1666;48.898;9.182;2023-05-07T03:51:37;5.40;;;3.38;;
3307;SDS011;1666;48.898;9.182;2023-05-07T03:54:10;7.47;;;4.28;;
3307;SDS011;1666;48.898;9.182;2023-05-07T03:56:39;4.90;;;3.75;;
3307;SDS011;1666;48.898;9.182;2023-05-07T03:59:09;5.80;;;3.97;;
3307;SDS011;1666;48.898;9.182;2023-05-07T04:01:39;4.47;;;3.95;;
3307;SDS011;1666;48.898;9.182;2023-05-07T04:04:09;4.20;;;3.72;;
3307;SDS011;1666;48.898;9.182;2023-05-07T04:06:39;4.50;;;3.67;;
3307;SDS011;1666;48.898;9.182;2023-05-07T04:09:12;6.43;;;4.18;;
3307;SDS011;1666;48.898;9.182;2023-05-07T04:11:42;5.72;;;3.38;;
3307;SDS011;1666;48.898;9.182;2023-05-07T04:14:11;4.80;;;3.53;;
3307;SDS011;1666;48.898;9.182;2023-05-07T04:16:41;4.07;;;3.40;;
3307;SDS011;1666;48.898;9.182;2023-05-07T04:19:11;6.88;;;3.53;;
3307;SDS011;1666;48.898;9.182;2023-05-07T04:21:41;4.20;;;3.58;;
3307;SDS011;1666;48.898;9.182;2023-05-07T04:24:14;4.70;;;3.28;;
3307;SDS011;1666;48.898;9.182;2023-05-07T04:26:44;5.18;;;3.13;;
3307;SDS011;1666;48.898;9.182;2023-05-07T04:29:14;3.20;;;2.80;;
3307;SDS011;1666;48.898;9.182;2023-05-07T04:31:44;3.47;;;2.97;;
3307;SDS011;1666;48.898;9.182;2023-05-07T04:34:14;4.95;;;3.22;;
3307;SDS011;1666;48.898;9.182;2023-05-07T04:36:43;4.68;;;3.45;;
3307;SDS011;1666;48.898;9.182;2023-05-07T04:39:17;4.78;;;3.30;;
3307;SDS011;1666;48.898;9.182;2023-05-07T04:41:46;3.35;;;3.05;;
3307;SDS011;1666;48.898;9.182;2023-05-07T04:44:16;4.63;;;3.03;;
3307;SDS011;1666;48.898;9.182;2023-05-07T04:46:46;4.53;;;3.35;;
3307;SDS011;1666;48.898;9.182;2023-05-07T04:49:16;4.82;;;3.92;;
3307;SDS011;1666;48.898;9.182;2023-05-07T04:51:46;3.35;;;3.03;;
3307;SDS011;1666;48.898;9.182;2023-05-07T04:54:19;4.38;;;3.17;;
3307;SDS011;1666;48.898;9.182;2023-05-07T04:56:49;4.10;;;3.22;;
3307;SDS011;1666;48.898;9.182;2023-05-07T04:59:19;4.75;;;3.22;;
3307;SDS011;1666;48.898;9.182;2023-05-07T05:01:48;4.03;;;2.90;;
3307;SDS011;1666;48.898;9.182;2023-05-07T05:04:19;5.38;;;3.95;;
3307;SDS011;1666;48.898;9.182;2023-05-07T05:06:48;3.35;;;3.05;;
3307;SDS011;1666;48.898;9.182;2023-05-07T05:09:21;5.15;;;3.40;;
3307;SDS011;1666;48.898;9.182;2023-05-07T05:11:51;3.67;;;3.10;;
3307;SDS011;1666;48.898;9.182;2023-05-07T05:14:21;5.15;;;3.33;;
3307;SDS011;1666;48.898;9.182;2023-05-07T05:16:51;3.72;;;3.25;;
3307;SDS011;1666;48.898;9.182;2023-05-07T05:19:21;5.50;;;3.20;;
3307;SDS011;1666;48.898;9.182;2023-05-07T05:21:51;4.93;;;3.25;;
3307;SDS011;1666;48.898;9.182;2023-05-07T05:24:24;4.32;;;3.25;;
3307;SDS011;1666;48.898;9.182;2023-05-07T05:26:54;4.40;;;3.65;;
3307;SDS011;1666;48.898;9.182;2023-05-07T05:29:24;12.82;;;3.15;;
3307;SDS011;1666;48.898;9.182;2023-05-07T05:31:53;4.50;;;3.40;;
3307;SDS011;1666;48.898;9.182;2023-05-07T05:34:23;4.45;;;3.40;;
3307;SDS011;1666;48.898;9.182;2023-05-07T05:36:54;4.32;;;3.10;;
3307;SDS011;1666;48.898;9.182;2023-05-07T05:39:26;4.10;;;2.92;;
3307;SDS011;1666;48.898;9.182;2023-05-07T05:41:56;5.10;;;3.30;;
3307;SDS011;1666;48.898;9.182;2023-05-07T05:44:26;7.78;;;3.28;;
3307;SDS011;1666;48.898;9.182;2023-05-07T05:46:56;3.45;;;3.05;;
3307;SDS011;1666;48.898;9.182;2023-05-07T05:49:26;4.80;;;3.10;;
3307;SDS011;1666;48.898;9.182;2023-05-07T05:51:56;4.95;;;3.25;;
3307;SDS011;1666;48.898;9.182;2023-05-07T05:54:28;5.72;;;3.00;;
3307;SDS011;1666;48.898;9.182;2023-05-07T05:56:58;8.68;;;3.00;;
3307;SDS011;1666;48.898;9.182;2023-05-07T05:59:30;4.63;;;2.97;;
3307;SDS011;1666;48.898;9.182;2023-05-07T06:02:00;4.00;;;2.78;;
3307;SDS011;1666;48.898;9.182;2023-05-07T06:04:30;3.40;;;2.60;;
3307;SDS011;1666;48.898;9.182;2023-05-07T06:07:00;4.75;;;2.83;;
3307;SDS011;1666;48.898;9.182;2023-05-07T06:09:32;3.28;;;2.70;;
3307;SDS011;1666;48.898;9.182;2023-05-07T06:12:02;3.75;;;2.55;;
3307;SDS011;1666;48.898;9.182;2023-05-07T06:14:32;3.15;;;2.38;;
3307;SDS011;1666;48.898;9.182;2023-05-07T06:17:03;4.90;;;2.47;;
3307;SDS011;1666;48.898;9.182;2023-05-07T06:19:33;2.50;;;2.30;;
3307;SDS011;1666;48.898;9.182;2023-05-07T06:22:02;4.30;;;2.50;;
3307;SDS011;1666;48.898;9.182;2023-05-07T06:24:35;3.13;;;1.92;;
3307;SDS011;1666;48.898;9.182;2023-05-07T06:27:05;3.35;;;2.63;;
3307;SDS011;1666;48.898;9.182;2023-05-07T06:29:35;5.55;;;2.58;;
3307;SDS011;1666;48.898;9.182;2023-05-07T06:32:08;2.80;;;2.30;;
3307;SDS011;1666;48.898;9.182;2023-05-07T06:34:38;2.90;;;2.30;;
3307;SDS011;1666;48.898;9.182;2023-05-07T06:37:09;2.20;;;2.00;;
3307;SDS011;1666;48.898;9.182;2023-05-07T06:39:41;3.25;;;2.10;;
3307;SDS011;1666;48.898;9.182;2023-05-07T06:42:11;2.70;;;2.30;;
3307;SDS011;1666;48.898;9.182;2023-05-07T06:44:41;5.97;;;2.30;;
3307;SDS011;1666;48.898;9.182;2023-05-07T06:47:11;3.20;;;1.92;;
3307;SDS011;1666;48.898;9.182;2023-05-07T06:49:42;4.07;;;2.15;;
3307;SDS011;1666;48.898;9.182;2023-05-07T06:52:11;3.58;;;2.00;;
3307;SDS011;1666;48.898;9.182;2023-05-07T06:54:44;3.40;;;2.05;;
3307;SDS011;1666;48.898;9.182;2023-05-07T06:57:14;3.72;;;2.17;;
3307;SDS011;1666;48.898;9.182;2023-05-07T06:59:44;5.82;;;2.45;;
3307;SDS011;1666;48.898;9.182;2023-05-07T07:02:14;2.78;;;2.00;;
3307;SDS011;1666;48.898;9.182;2023-05-07T07:04:44;3.35;;;2.13;;
3307;SDS011;1666;48.898;9.182;2023-05-07T07:07:14;3.00;;;2.25;;
3307;SDS011;1666;48.898;9.182;2023-05-07T07:09:49;5.30;;;2.58;;
3307;SDS011;1666;48.898;9.182;2023-05-07T07:12:19;3.05;;;2.22;;
3307;SDS011;1666;48.898;9.182;2023-05-07T07:14:51;2.33;;;2.03;;
3307;SDS011;1666;48.898;9.182;2023-05-07T07:17:21;2.85;;;2.08;;
3307;SDS011;1666;48.898;9.182;2023-05-07T07:19:51;2.90;;;2.10;;
3307;SDS011;1666;48.898;9.182;2023-05-07T07:22:21;2.47;;;2.00;;
3307;SDS011;1666;48.898;9.182;2023-05-07T07:24:53;3.05;;;2.40;;
3307;SDS011;1666;48.898;9.182;2023-05-07T07:27:23;3.40;;;2.60;;
3307;SDS011;1666;48.898;9.182;2023-05-07T07:29:53;5.47;;;2.35;;
3307;SDS011;1666;48.898;9.182;2023-05-07T07:32:23;2.40;;;2.20;;
3307;SDS011;1666;48.898;9.182;2023-05-07T07:34:53;5.28;;;2.35;;
3307;SDS011;1666;48.898;9.182;2023-05-07T07:37:22;3.00;;;2.28;;
3307;SDS011;1666;48.898;9.182;2023-05-07T07:39:55;3.58;;;2.20;;
3307;SDS011;1666;48.898;9.182;2023-05-07T07:42:25;2.90;;;2.20;;
3307;SDS011;1666;48.898;9.182;2023-05-07T07:44:55;3.67;;;2.58;;
3307;SDS011;1666;48.898;9.182;2023-05-07T07:47:25;6.00;;;2.50;;
3307;SDS011;1666;48.898;9.182;2023-05-07T07:49:55;3.42;;;2.55;;
3307;SDS011;1666;48.898;9.182;2023-05-07T07:52:25;4.75;;;2.72;;
3307;SDS011;1666;48.898;9.182;2023-05-07T07:54:58;4.43;;;2.67;;
3307;SDS011;1666;48.898;9.182;2023-05-07T07:57:29;4.53;;;2.47;;
3307;SDS011;1666;48.898;9.182;2023-05-07T07:59:59;3.50;;;2.85;;
3307;SDS011;1666;48.898;9.182;2023-05-07T08:02:29;3.85;;;2.30;;
3307;SDS011;1666;48.898;9.182;2023-05-07T08:04:59;3.03;;;2.47;;
3307;SDS011;1666;48.898;9.182;2023-05-07T08:07:29;4.15;;;2.70;;
3307;SDS011;1666;48.898;9.182;2023-05-07T08:10:01;3.47;;;2.55;;
3307;SDS011;1666;48.898;9.182;2023-05-07T08:12:31;3.65;;;2.30;;
3307;SDS011;1666;48.898;9.182;2023-05-07T08:15:01;5.22;;;2.63;;
3307;SDS011;1666;48.898;9.182;2023-05-07T08:17:32;3.45;;;2.20;;
3307;SDS011;1666;48.898;9.182;2023-05-07T08:20:02;8.25;;;2.70;;
3307;SDS011;1666;48.898;9.182;2023-05-07T08:22:33;4.15;;;2.50;;
3307;SDS011;1666;48.898;9.182;2023-05-07T08:25:06;4.18;;;2.45;;
3307;SDS011;1666;48.898;9.182;2023-05-07T08:27:36;2.90;;;2.38;;
3307;SDS011;1666;48.898;9.182;2023-05-07T08:30:07;4.68;;;2.25;;
3307;SDS011;1666;48.898;9.182;2023-05-07T08:32:38;5.63;;;2.63;;
3307;SDS011;1666;48.898;9.182;2023-05-07T08:35:08;4.03;;;2.50;;
3307;SDS011;1666;48.898;9.182;2023-05-07T08:37:38;5.03;;;3.13;;
3307;SDS011;1666;48.898;9.182;2023-05-07T08:40:11;4.55;;;2.67;;
3307;SDS011;1666;48.898;9.182;2023-05-07T08:42:42;4.15;;;2.25;;
3307;SDS011;1666;48.898;9.182;2023-05-07T08:45:13;4.35;;;3.00;;
3307;SDS011;1666;48.898;9.182;2023-05-07T08:47:46;4.95;;;2.60;;
3307;SDS011;1666;48.898;9.182;2023-05-07T08:50:20;2.50;;;2.30;;
3307;SDS011;1666;48.898;9.182;2023-05-07T08:52:50;3.00;;;2.70;;
3307;SDS011;1666;48.898;9.182;2023-05-07T08:55:23;3.47;;;2.33;;
3307;SDS011;1666;48.898;9.182;2023-05-07T08:57:53;3.42;;;2.53;;
3307;SDS011;1666;48.898;9.182;2023-05-07T09:00:23;4.03;;;2.67;;
3307;SDS011;1666;48.898;9.182;2023-05-07T09:02:53;4.53;;;2.50;;
3307;SDS011;1666;48.898;9.182;2023-05-07T09:05:23;4.85;;;2.95;;
3307;SDS011;1666;48.898;9.182;2023-05-07T09:07:53;6.55;;;2.75;;
3307;SDS011;1666;48.898;9.182;2023-05-07T09:10:26;2.83;;;2.53;;
3307;SDS011;1666;48.898;9.182;2023-05-07T09:12:56;4.85;;;2.97;;
3307;SDS011;1666;48.898;9.182;2023-05-07T09:15:26;3.47;;;2.90;;
3307;SDS011;1666;48.898;9.182;2023-05-07T09:17:59;4.50;;;3.25;;
3307;SDS011;1666;48.898;9.182;2023-05-07T09:20:30;5.70;;;3.40;;
3307;SDS011;1666;48.898;9.182;2023-05-07T09:23:00;4.15;;;2.88;;
3307;SDS011;1666;48.898;9.182;2023-05-07T09:25:34;4.13;;;2.75;;
3307;SDS011;1666;48.898;9.182;2023-05-07T09:28:05;3.95;;;2.72;;
3307;SDS011;1666;48.898;9.182;2023-05-07T09:30:36;5.13;;;2.70;;
3307;SDS011;1666;48.898;9.182;2023-05-07T09:33:06;3.00;;;2.80;;
3307;SDS011;1666;48.898;9.182;2023-05-07T09:35:37;2.65;;;2.40;;
3307;SDS011;1666;48.898;9.182;2023-05-07T09:38:07;3.67;;;2.72;;
3307;SDS011;1666;48.898;9.182;2023-05-07T09:40:40;3.53;;;2.70;;
3307;SDS011;1666;48.898;9.182;2023-05-07T09:43:09;3.15;;;2.45;;
3307;SDS011;1666;48.898;9.182;2023-05-07T09:45:40;2.92;;;2.50;;
3307;SDS011;1666;48.898;9.182;2023-05-07T09:48:10;4.07;;;2.60;;
3307;SDS011;1666;48.898;9.182;2023-05-07T09:50:45;3.45;;;2.72;;
3307;SDS011;1666;48.898;9.182;2023-05-07T09:53:18;3.30;;;3.00;;
3307;SDS011;1666;48.898;9.182;2023-05-07T09:55:51;4.28;;;2.83;;
3307;SDS011;1666;48.898;9.182;2023-05-07T09:58:22;3.20;;;2.53;;
3307;SDS011;1666;48.898;9.182;2023-05-07T10:00:52;2.90;;;2.58;;
3307;SDS011;1666;48.898;9.182;2023-05-07T10:03:22;3.40;;;2.67;;
3307;SDS011;1666;48.898;9.182;2023-05-07T10:05:56;6.10;;;2.80;;
3307;SDS011;1666;48.898;9.182;2023-05-07T10:08:28;3.00;;;2.80;;
3307;SDS011;1666;48.898;9.182;2023-05-07T10:11:02;5.05;;;2.80;;
3307;SDS011;1666;48.898;9.182;2023-05-07T10:13:33;2.85;;;2.63;;
3307;SDS011;1666;48.898;9.182;2023-05-07T10:16:04;3.15;;;2.85;;
3307;SDS011;1666;48.898;9.182;2023-05-07T10:18:35;3.08;;;2.60;;
3307;SDS011;1666;48.898;9.182;2023-05-07T10:21:07;3.75;;;2.53;;
3307;SDS011;1666;48.898;9.182;2023-05-07T10:23:39;4.75;;;2.33;;
3307;SDS011;1666;48.898;9.182;2023-05-07T10:26:12;2.53;;;2.28;;
3307;SDS011;1666;48.898;9.182;2023-05-07T10:28:45;5.53;;;2.28;;
3307;SDS011;1666;48.898;9.182;2023-05-07T10:31:30;4.90;;;2.50;;
3307;SDS011;1666;48.898;9.182;2023-05-07T10:34:14;3.38;;;2.58;;
3307;SDS011;1666;48.898;9.182;2023-05-07T10:36:48;3.40;;;2.75;;
3307;SDS011;1666;48.898;9.182;2023-05-07T10:39:19;3.65;;;2.63;;
3307;SDS011;1666;48.898;9.182;2023-05-07T10:41:52;4.32;;;2.35;;
3307;SDS011;1666;48.898;9.182;2023-05-07T10:44:25;2.75;;;2.15;;
3307;SDS011;1666;48.898;9.182;2023-05-07T10:47:06;2.85;;;2.63;;
3307;SDS011;1666;48.898;9.182;2023-05-07T10:49:37;2.95;;;2.60;;
3307;SDS011;1666;48.898;9.182;2023-05-07T10:52:41;3.15;;;2.85;;
3307;SDS011;1666;48.898;9.182;2023-05-07T10:55:21;3.95;;;2.50;;
3307;SDS011;1666;48.898;9.182;2023-05-07T10:57:56;4.50;;;2.38;;
3307;SDS011;1666;48.898;9.182;2023-05-07T11:00:59;2.97;;;2.22;;
3307;SDS011;1666;48.898;9.182;2023-05-07T11:03:30;2.70;;;2.50;;
3307;SDS011;1666;48.898;9.182;2023-05-07T11:06:10;3.78;;;2.70;;
3307;SDS011;1666;48.898;9.182;2023-05-07T11:08:53;3.45;;;1.98;;
3307;SDS011;1666;48.898;9.182;2023-05-07T11:17:23;3.42;;;2.63;;
3307;SDS011;1666;48.898;9.182;2023-05-07T11:19:56;3.10;;;2.38;;
3307;SDS011;1666;48.898;9.182;2023-05-07T11:22:36;5.05;;;2.30;;
3307;SDS011;1666;48.898;9.182;2023-05-07T11:25:07;2.40;;;2.08;;
3307;SDS011;1666;48.898;9.182;2023-05-07T11:27:38;3.47;;;2.38;;
3307;SDS011;1666;48.898;9.182;2023-05-07T11:30:08;2.90;;;2.03;;
3307;SDS011;1666;48.898;9.182;2023-05-07T11:32:42;3.25;;;2.20;;
3307;SDS011;1666;48.898;9.182;2023-05-07T11:35:12;4.32;;;2.33;;
3307;SDS011;1666;48.898;9.182;2023-05-07T11:37:43;3.15;;;2.35;;
3307;SDS011;1666;48.898;9.182;2023-05-07T11:40:14;2.60;;;2.22;;
3307;SDS011;1666;48.898;9.182;2023-05-07T11:42:44;4.20;;;2.20;;
3307;SDS011;1666;48.898;9.182;2023-05-07T11:45:22;2.72;;;2.10;;
3307;SDS011;1666;48.898;9.182;2023-05-07T11:47:56;6.35;;;2.50;;
3307;SDS011;1666;48.898;9.182;2023-05-07T11:50:26;3.08;;;1.92;;
3307;SDS011;1666;48.898;9.182;2023-05-07T11:52:55;5.75;;;2.33;;
3307;SDS011;1666;48.898;9.182;2023-05-07T11:55:25;1.98;;;1.70;;
3307;SDS011;1666;48.898;9.182;2023-05-07T11:57:55;3.10;;;1.85;;
3307;SDS011;1666;48.898;9.182;2023-05-07T12:00:25;3.78;;;1.88;;
3307;SDS011;1666;48.898;9.182;2023-05-07T12:02:59;2.75;;;1.45;;
3307;SDS011;1666;48.898;9.182;2023-05-07T12:05:33;2.70;;;1.48;;
3307;SDS011;1666;48.898;9.182;2023-05-07T12:08:03;2.05;;;1.70;;
3307;SDS011;1666;48.898;9.182;2023-05-07T12:10:34;4.55;;;2.17;;
3307;SDS011;1666;48.898;9.182;2023-05-07T12:13:07;3.58;;;1.60;;
3307;SDS011;1666;48.898;9.182;2023-05-07T12:15:44;2.03;;;1.70;;
3307;SDS011;1666;48.898;9.182;2023-05-07T12:18:16;1.92;;;1.70;;
3307;SDS011;1666;48.898;9.182;2023-05-07T12:20:46;3.22;;;2.00;;
3307;SDS011;1666;48.898;9.182;2023-05-07T12:23:18;2.42;;;1.50;;
3307;SDS011;1666;48.898;9.182;2023-05-07T12:25:48;3.97;;;2.00;;
3307;SDS011;1666;48.898;9.182;2023-05-07T12:28:18;2.05;;;1.60;;
3307;SDS011;1666;48.898;9.182;2023-05-07T12:30:49;3.30;;;2.00;;
3307;SDS011;1666;48.898;9.182;2023-05-07T12:33:25;4.05;;;2.03;;
3307;SDS011;1666;48.898;9.182;2023-05-07T12:35:57;3.17;;;1.95;;
3307;SDS011;1666;48.898;9.182;2023-05-07T12:38:35;2.63;;;1.63;;
3307;SDS011;1666;48.898;9.182;2023-05-07T12:41:06;3.08;;;1.85;;
3307;SDS011;1666;48.898;9.182;2023-05-07T12:43:39;2.05;;;1.85;;
3307;SDS011;1666;48.898;9.182;2023-05-07T12:46:09;2.92;;;1.90;;
3307;SDS011;1666;48.898;9.182;2023-05-07T12:48:45;2.20;;;1.90;;
3307;SDS011;1666;48.898;9.182;2023-05-07T12:51:15;2.50;;;1.60;;
3307;SDS011;1666;48.898;9.182;2023-05-07T12:53:45;2.42;;;1.50;;
3307;SDS011;1666;48.898;9.182;2023-05-07T12:56:15;2.40;;;1.83;;
3307;SDS011;1666;48.898;9.182;2023-05-07T12:58:45;1.80;;;1.60;;
3307;SDS011;1666;48.898;9.182;2023-05-07T13:01:18;1.60;;;1.50;;
3307;SDS011;1666;48.898;9.182;2023-05-07T13:03:53;4.10;;;2.10;;
3307;SDS011;1666;48.898;9.182;2023-05-07T13:06:23;2.42;;;2.22;;
3307;SDS011;1666;48.898;9.182;2023-05-07T13:08:52;4.78;;;2.50;;
3307;SDS011;1666;48.898;9.182;2023-05-07T13:11:22;2.97;;;2.20;;
3307;SDS011;1666;48.898;9.182;2023-05-07T13:13:52;2.72;;;2.13;;
3307;SDS011;1666;48.898;9.182;2023-05-07T13:16:22;2.20;;;2.00;;
3307;SDS011;1666;48.898;9.182;2023-05-07T13:18:55;8.23;;;2.65;;
3307;SDS011;1666;48.898;9.182;2023-05-07T13:21:25;2.25;;;1.95;;
3307;SDS011;1666;48.898;9.182;2023-05-07T13:23:57;5.20;;;1.98;;
3307;SDS011;1666;48.898;9.182;2023-05-07T13:26:27;3.45;;;1.70;;
3307;SDS011;1666;48.898;9.182;2023-05-07T13:28:57;3.58;;;1.65;;
3307;SDS011;1666;48.898;9.182;2023-05-07T13:31:27;4.53;;;1.70;;
3307;SDS011;1666;48.898;9.182;2023-05-07T13:33:59;1.88;;;1.45;;
3307;SDS011;1666;48.898;9.182;2023-05-07T13:36:29;3.80;;;1.80;;
3307;SDS011;1666;48.898;9.182;2023-05-07T13:39:03;3.70;;;2.03;;
3307;SDS011;1666;48.898;9.182;2023-05-07T13:41:33;2.85;;;1.45;;
3307;SDS011;1666;48.898;9.182;2023-05-07T13:44:03;1.50;;;1.23;;
3307;SDS011;1666;48.898;9.182;2023-05-07T13:46:33;3.00;;;1.55;;
3307;SDS011;1666;48.898;9.182;2023-05-07T13:49:06;2.10;;;1.30;;
3307;SDS011;1666;48.898;9.182;2023-05-07T13:54:07;2.53;;;1.75;;
3307;SDS011;1666;48.898;9.182;2023-05-07T13:56:37;3.05;;;1.80;;
3307;SDS011;1666;48.898;9.182;2023-05-07T13:59:08;4.60;;;1.77;;
3307;SDS011;1666;48.898;9.182;2023-05-07T14:01:40;2.97;;;1.60;;
3307;SDS011;1666;48.898;9.182;2023-05-07T14:04:13;1.45;;;1.27;;
3307;SDS011;1666;48.898;9.182;2023-05-07T14:06:43;2.38;;;1.27;;
3307;SDS011;1666;48.898;9.182;2023-05-07T14:09:13;1.65;;;0.98;;
3307;SDS011;1666;48.898;9.182;2023-05-07T14:11:43;2.35;;;1.13;;
3307;SDS011;1666;48.898;9.182;2023-05-07T14:14:14;2.40;;;0.80;;
3307;SDS011;1666;48.898;9.182;2023-05-07T14:16:43;2.90;;;1.08;;
3307;SDS011;1666;48.898;9.182;2023-05-07T14:19:18;2.58;;;0.90;;
3307;SDS011;1666;48.898;9.182;2023-05-07T14:21:49;2.35;;;1.30;;
3307;SDS011;1666;48.898;9.182;2023-05-07T14:24:19;1.92;;;1.30;;
3307;SDS011;1666;48.898;9.182;2023-05-07T14:29:33;4.10;;;1.17;;
3307;SDS011;1666;48.898;9.182;2023-05-07T14:32:04;2.72;;;1.05;;
3307;SDS011;1666;48.898;9.182;2023-05-07T14:34:36;3.05;;;1.17;;
3307;SDS011;1666;48.898;9.182;2023-05-07T14:37:06;4.22;;;1.50;;
3307;SDS011;1666;48.898;9.182;2023-05-07T14:39:36;2.33;;;1.60;;
3307;SDS011;1666;48.898;9.182;2023-05-07T14:42:06;3.20;;;1.50;;
3307;SDS011;1666;48.898;9.182;2023-05-07T14:44:37;2.55;;;1.48;;
3307;SDS011;1666;48.898;9.182;2023-05-07T14:47:08;3.20;;;1.92;;
3307;SDS011;1666;48.898;9.182;2023-05-07T14:49:41;4.43;;;1.92;;
3307;SDS011;1666;48.898;9.182;2023-05-07T14:52:11;2.10;;;1.58;;
3307;SDS011;1666;48.898;9.182;2023-05-07T14:54:41;3.15;;;1.75;;
3307;SDS011;1666;48.898;9.182;2023-05-07T14:57:11;2.35;;;1.88;;
3307;SDS011;1666;48.898;9.182;2023-05-07T14:59:45;3.60;;;2.10;;
3307;SDS011;1666;48.898;9.182;2023-05-07T15:02:16;4.78;;;2.17;;
3307;SDS011;1666;48.898;9.182;2023-05-07T15:04:49;2.55;;;2.20;;
3307;SDS011;1666;48.898;9.182;2023-05-07T15:07:20;3.58;;;2.35;;
3307;SDS011;1666;48.898;9.182;2023-05-07T15:09:50;4.40;;;2.75;;
3307;SDS011;1666;48.898;9.182;2023-05-07T15:12:20;3.30;;;2.33;;
3307;SDS011;1666;48.898;9.182;2023-05-07T15:14:50;3.75;;;2.40;;
3307;SDS011;1666;48.898;9.182;2023-05-07T15:17:20;3.40;;;2.70;;
3307;SDS011;1666;48.898;9.182;2023-05-07T15:19:52;4.53;;;2.63;;
3307;SDS011;1666;48.898;9.182;2023-05-07T15:22:22;3.55;;;2.90;;
3307;SDS011;1666;48.898;9.182;2023-05-07T15:24:52;4.45;;;3.03;;
3307;SDS011;1666;48.898;9.182;2023-05-07T15:27:23;3.53;;;2.95;;
3307;SDS011;1666;48.898;9.182;2023-05-07T15:29:56;2.90;;;2.60;;
3307;SDS011;1666;48.898;9.182;2023-05-07T15:32:26;4.10;;;2.53;;
3307;SDS011;1666;48.898;9.182;2023-05-07T15:34:59;5.53;;;3.03;;
3307;SDS011;1666;48.898;9.182;2023-05-07T15:37:30;3.80;;;2.88;;
3307;SDS011;1666;48.898;9.182;2023-05-07T15:39:59;5.07;;;3.03;;
3307;SDS011;1666;48.898;9.182;2023-05-07T15:42:31;3.63;;;2.97;;
3307;SDS011;1666;48.898;9.182;2023-05-07T15:45:01;3.17;;;2.65;;
3307;SDS011;1666;48.898;9.182;2023-05-07T15:47:32;5.22;;;3.15;;
3307;SDS011;1666;48.898;9.182;2023-05-07T15:50:06;4.30;;;3.13;;